Seagoville's Hourly Summary for Tuesday, April 18, 2017
Hour Temp
(f)
RH
(%)
Solar Rad.
(MJ/m2)
Rainfall
(in)
Wind
(mph)
4/18/2017 12:00 AM 64 94 0 0 3.54
4/18/2017 1:00 AM 64 94 0 0 2.16
4/18/2017 2:00 AM 64 94 0 0 1.37
4/18/2017 3:00 AM 64 95 0 0 0.72
4/18/2017 4:00 AM 64 96 0 0 0.18
4/18/2017 5:00 AM 64 97 0 0 0.33
4/18/2017 6:00 AM 64 97 0 0 1.33
4/18/2017 7:00 AM 63 97 0.08 0 0.02
4/18/2017 8:00 AM 65 93 0.44 0 1.13
4/18/2017 9:00 AM 68 75 1.26 0 1.88
4/18/2017 10:00 AM 71 72 1.72 0 2.2
4/18/2017 11:00 AM 73 64 2.72 0 3.5
4/18/2017 12:00 PM 74 63 1.64 0 4.89
4/18/2017 1:00 PM 75 61 2.33 0 5.33
4/18/2017 2:00 PM 76 58 2.02 0 3.11
4/18/2017 3:00 PM 78 54 2.31 0 4.56
4/18/2017 4:00 PM 78 54 1.47 0 3.24
4/18/2017 5:00 PM 77 56 0.94 0 4.4
4/18/2017 6:00 PM 72 60 0.53 0 9.22
4/18/2017 7:00 PM 68 80 0.11 0 4.92
4/18/2017 8:00 PM 67 88 0 0 2.65
4/18/2017 9:00 PM 66 92 0 0 2.05
4/18/2017 10:00 PM 65 93 0 0 1.4
4/18/2017 11:00 PM 65 94 0 0 1.15
Data Summary 68 80 17.57 0.00 2.72